Time;durP1;ratioP1;P1;durP2;ratioP2;P2;SDS_P1;SDS_P2;PMS_P1;PMS_P2;Temp;Humidity;BMP_temperature;BMP_pressure;BME280_temperature;BME280_humidity;BME280_pressure;Samples;Min_cycle;Max_cycle;Signal;HPM_P1;HPM_P2
2023/10/27 00:00:55;;;;;;;5.10;4.33;;;11.50;99.90;;;;;;5051882;28;20479;-64
2023/10/27 00:03:21;;;;;;;9.87;4.60;;;11.50;99.90;;;;;;5046215;28;20441;-64
2023/10/27 00:05:50;;;;;;;6.20;3.80;;;11.40;99.90;;;;;;5052952;28;20451;-64
2023/10/27 00:08:17;;;;;;;8.33;4.00;;;11.50;99.90;;;;;;5052626;28;20433;-64
2023/10/27 00:10:44;;;;;;;5.83;4.03;;;11.40;99.90;;;;;;5053365;28;20924;-64
2023/10/27 00:13:10;;;;;;;6.93;3.70;;;11.50;99.90;;;;;;5052942;28;20449;-64
2023/10/27 00:15:37;;;;;;;9.07;4.83;;;11.40;99.90;;;;;;5052848;28;20950;-64
2023/10/27 00:18:05;;;;;;;8.13;4.10;;;11.40;99.90;;;;;;5052514;28;20490;-64
2023/10/27 00:20:32;;;;;;;7.37;3.50;;;11.40;99.90;;;;;;5052184;28;20479;-64
2023/10/27 00:23:00;;;;;;;6.40;3.93;;;11.40;99.90;;;;;;5053041;28;20532;-63
2023/10/27 00:25:27;;;;;;;6.53;3.30;;;11.40;99.90;;;;;;5052748;28;20540;-64
2023/10/27 00:27:54;;;;;;;10.83;3.70;;;11.40;99.90;;;;;;5053049;28;20953;-64
2023/10/27 00:30:20;;;;;;;5.10;4.03;;;11.40;99.90;;;;;;5052787;28;20481;-64
2023/10/27 00:32:47;;;;;;;3.50;3.23;;;11.30;99.90;;;;;;5052753;28;20452;-63
2023/10/27 00:35:14;;;;;;;6.57;3.57;;;11.30;99.90;;;;;;5052844;28;20449;-64
2023/10/27 00:37:41;;;;;;;3.83;3.43;;;11.30;99.90;;;;;;5052527;28;20527;-63
2023/10/27 00:40:11;;;;;;;6.87;4.40;;;11.30;99.90;;;;;;5044261;28;20475;-64
2023/10/27 00:42:38;;;;;;;9.93;3.20;;;11.30;99.90;;;;;;5052728;28;20454;-64
2023/10/27 00:45:05;;;;;;;4.67;3.03;;;11.30;99.90;;;;;;5052044;28;20539;-64
2023/10/27 00:47:32;;;;;;;5.77;3.53;;;11.20;99.90;;;;;;5052044;28;20524;-63
2023/10/27 00:49:59;;;;;;;5.07;2.73;;;11.20;99.90;;;;;;5052470;28;20469;-64
2023/10/27 00:52:28;;;;;;;7.80;3.60;;;11.20;99.90;;;;;;5052511;28;20448;-63
2023/10/27 00:54:55;;;;;;;7.93;2.80;;;11.20;99.90;;;;;;5052205;28;20480;-64
2023/10/27 00:57:24;;;;;;;5.80;3.27;;;11.20;99.90;;;;;;5052185;28;21010;-64
2023/10/27 00:59:51;;;;;;;8.73;3.37;;;11.10;99.90;;;;;;5052241;28;20556;-64
2023/10/27 01:02:18;;;;;;;6.33;5.40;;;11.10;99.90;;;;;;5052505;28;20452;-64
2023/10/27 01:04:46;;;;;;;7.57;3.83;;;11.10;99.90;;;;;;5052033;28;20444;-63
2023/10/27 01:07:13;;;;;;;6.53;3.80;;;11.10;99.90;;;;;;5052422;28;20449;-64
2023/10/27 01:09:40;;;;;;;4.40;4.10;;;11.10;99.90;;;;;;5052238;28;20979;-64
2023/10/27 01:12:07;;;;;;;6.97;4.30;;;11.10;99.90;;;;;;5052387;28;20551;-64
2023/10/27 01:14:35;;;;;;;5.07;4.30;;;11.10;99.90;;;;;;5051947;28;20492;-63
2023/10/27 01:17:02;;;;;;;4.70;3.30;;;11.10;99.90;;;;;;5052078;28;20449;-64
2023/10/27 01:19:29;;;;;;;3.60;2.80;;;11.10;99.90;;;;;;5043628;28;20556;-64
2023/10/27 01:21:56;;;;;;;3.17;2.80;;;11.10;99.90;;;;;;5052027;28;20445;-64
2023/10/27 01:24:24;;;;;;;4.90;2.60;;;11.10;99.90;;;;;;5051723;28;20451;-64
2023/10/27 01:26:51;;;;;;;9.77;3.67;;;11.10;99.90;;;;;;5051563;28;20528;-64
2023/10/27 01:29:17;;;;;;;7.40;3.57;;;11.00;99.90;;;;;;5051653;28;20477;-63
2023/10/27 01:31:44;;;;;;;13.40;4.90;;;11.00;99.90;;;;;;5052294;28;20455;-64
2023/10/27 01:34:12;;;;;;;7.60;3.57;;;11.00;99.90;;;;;;5052008;28;20827;-64
2023/10/27 01:36:38;;;;;;;5.63;5.00;;;11.10;99.90;;;;;;5051406;28;20510;-64
2023/10/27 01:39:05;;;;;;;9.60;4.00;;;11.00;99.90;;;;;;5051611;28;20495;-64
2023/10/27 01:41:34;;;;;;;14.10;4.80;;;11.00;99.90;;;;;;5051571;28;20528;-64
2023/10/27 01:44:01;;;;;;;7.73;3.90;;;11.00;99.90;;;;;;5051688;28;20445;-64
2023/10/27 01:46:28;;;;;;;9.07;4.30;;;11.00;99.90;;;;;;5051608;28;20536;-64
2023/10/27 01:48:54;;;;;;;4.37;3.97;;;11.00;99.90;;;;;;5051399;28;20724;-64
2023/10/27 01:51:21;;;;;;;4.90;3.00;;;11.00;99.90;;;;;;5051277;28;20444;-64
2023/10/27 01:53:48;;;;;;;4.33;3.23;;;11.00;99.90;;;;;;5051378;28;20524;-64
2023/10/27 01:56:15;;;;;;;4.17;3.40;;;11.00;99.90;;;;;;5050663;28;20533;-64
2023/10/27 01:58:45;;;;;;;7.80;3.10;;;11.00;99.90;;;;;;5051242;28;20831;-63
2023/10/27 02:01:14;;;;;;;4.53;3.10;;;11.00;99.90;;;;;;5051336;28;20457;-64
2023/10/27 02:03:41;;;;;;;4.10;3.23;;;10.90;99.90;;;;;;5051611;28;20471;-63
2023/10/27 02:06:08;;;;;;;3.03;2.80;;;10.90;99.90;;;;;;5051015;28;20480;-64
2023/10/27 02:08:35;;;;;;;5.00;2.77;;;10.90;99.90;;;;;;5051185;28;20467;-63
2023/10/27 02:11:03;;;;;;;5.93;3.17;;;10.90;99.90;;;;;;5051311;28;20445;-63
2023/10/27 02:13:30;;;;;;;7.30;3.53;;;10.90;99.90;;;;;;5051383;28;20456;-64
2023/10/27 02:15:58;;;;;;;4.57;3.40;;;10.80;99.90;;;;;;5051006;28;20214;-64
2023/10/27 02:18:25;;;;;;;7.73;4.30;;;10.80;99.90;;;;;;5050974;28;20495;-64
2023/10/27 02:20:52;;;;;;;3.20;2.93;;;10.80;99.90;;;;;;5051132;28;20536;-64
2023/10/27 02:23:19;;;;;;;3.90;2.97;;;10.80;99.90;;;;;;5050967;28;20449;-63
2023/10/27 02:25:46;;;;;;;6.53;2.90;;;10.80;99.90;;;;;;5051007;28;20878;-64
2023/10/27 02:28:13;;;;;;;7.40;3.33;;;10.80;99.90;;;;;;5051065;28;20819;-63
2023/10/27 02:30:40;;;;;;;4.80;2.90;;;10.80;99.90;;;;;;5052890;28;20449;-63
2023/10/27 02:33:08;;;;;;;3.23;2.90;;;10.80;99.90;;;;;;5055127;28;20452;-63
2023/10/27 02:35:35;;;;;;;5.90;3.03;;;10.80;99.90;;;;;;5054759;28;20445;-63
2023/10/27 02:38:04;;;;;;;3.77;2.77;;;10.80;99.90;;;;;;5054860;28;20484;-64
2023/10/27 02:40:30;;;;;;;7.67;2.80;;;10.70;99.90;;;;;;5055172;28;20456;-63
2023/10/27 02:42:57;;;;;;;6.30;3.47;;;10.70;99.90;;;;;;5054773;28;20974;-63
2023/10/27 02:45:24;;;;;;;3.87;3.53;;;10.70;99.90;;;;;;5054595;28;20543;-64
2023/10/27 02:47:51;;;;;;;8.73;5.00;;;10.70;99.90;;;;;;5054766;28;20471;-64
2023/10/27 02:50:19;;;;;;;8.03;3.90;;;10.80;99.90;;;;;;5054638;28;20473;-64
2023/10/27 02:52:46;;;;;;;6.40;5.50;;;10.70;99.90;;;;;;5054588;28;20820;-64
2023/10/27 02:55:13;;;;;;;6.60;3.63;;;10.70;99.90;;;;;;5054474;28;20447;-63
2023/10/27 02:57:40;;;;;;;6.33;3.73;;;10.80;99.90;;;;;;5054527;28;20222;-64
2023/10/27 03:00:08;;;;;;;6.20;2.93;;;10.70;99.90;;;;;;5054384;28;20498;-63
2023/10/27 03:02:35;;;;;;;5.60;3.50;;;10.80;99.90;;;;;;5054360;28;20444;-63
2023/10/27 03:05:01;;;;;;;4.83;3.00;;;10.80;99.90;;;;;;5053909;28;20973;-64
2023/10/27 03:07:30;;;;;;;3.70;3.40;;;10.80;99.90;;;;;;5054705;28;20444;-64
2023/10/27 03:09:56;;;;;;;6.87;3.33;;;10.80;99.90;;;;;;5054547;28;20465;-63
2023/10/27 03:12:23;;;;;;;4.63;3.33;;;10.80;99.90;;;;;;5054416;28;20443;-63
2023/10/27 03:14:50;;;;;;;8.83;4.20;;;10.80;99.90;;;;;;5054237;28;20445;-64
2023/10/27 03:17:17;;;;;;;5.90;3.87;;;10.80;99.90;;;;;;5054229;28;20969;-64
2023/10/27 03:19:44;;;;;;;4.00;3.57;;;10.80;99.90;;;;;;5054035;28;20494;-64
2023/10/27 03:22:10;;;;;;;4.93;4.60;;;10.80;99.90;;;;;;5054366;28;20819;-64
2023/10/27 03:24:39;;;;;;;3.17;2.97;;;10.80;99.90;;;;;;5053704;28;20452;-64
2023/10/27 03:27:06;;;;;;;4.23;3.87;;;10.80;99.90;;;;;;5053988;28;20455;-64
2023/10/27 03:29:33;;;;;;;6.23;3.50;;;10.90;99.90;;;;;;5054030;28;21016;-64
2023/10/27 03:32:00;;;;;;;5.07;3.40;;;10.80;99.90;;;;;;5053934;28;20449;-63
2023/10/27 03:34:27;;;;;;;8.53;3.67;;;10.90;99.90;;;;;;5054159;28;20457;-64
2023/10/27 03:36:53;;;;;;;7.20;4.23;;;10.90;99.90;;;;;;5052658;28;20510;-64
2023/10/27 03:39:20;;;;;;;4.47;4.07;;;10.80;99.90;;;;;;5053900;28;20492;-64
2023/10/27 03:41:48;;;;;;;6.87;4.07;;;10.80;99.90;;;;;;5052668;28;20449;-64
2023/10/27 03:44:16;;;;;;;8.67;4.13;;;10.90;99.90;;;;;;5053832;28;20456;-64
2023/10/27 03:46:42;;;;;;;4.70;4.20;;;10.80;99.90;;;;;;5053393;28;20950;-64
2023/10/27 03:49:09;;;;;;;6.00;4.60;;;10.80;99.90;;;;;;5053307;28;20233;-63
2023/10/27 03:51:36;;;;;;;6.37;5.77;;;10.80;99.90;;;;;;5053583;28;20977;-64
2023/10/27 03:54:03;;;;;;;5.00;3.67;;;10.90;99.90;;;;;;5053927;28;20449;-64
2023/10/27 03:56:31;;;;;;;4.40;3.77;;;10.80;99.90;;;;;;5053234;28;20539;-64
2023/10/27 03:58:59;;;;;;;9.53;4.10;;;10.90;99.90;;;;;;5053172;28;20493;-64
2023/10/27 04:01:27;;;;;;;5.30;3.40;;;10.80;99.90;;;;;;5053541;28;20448;-64
2023/10/27 04:03:54;;;;;;;9.63;3.40;;;10.80;99.90;;;;;;5053284;28;20472;-64
2023/10/27 04:06:21;;;;;;;8.50;3.87;;;10.90;99.90;;;;;;5053221;28;20453;-64
2023/10/27 04:08:48;;;;;;;5.67;3.90;;;10.90;99.90;;;;;;5053359;28;20897;-64
2023/10/27 04:11:15;;;;;;;5.07;4.17;;;10.90;99.90;;;;;;5053319;28;20553;-64
2023/10/27 04:13:42;;;;;;;5.40;4.90;;;10.90;99.90;;;;;;5053251;28;20543;-64
2023/10/27 04:16:10;;;;;;;9.23;4.70;;;10.90;99.90;;;;;;5052668;28;20506;-64
2023/10/27 04:18:37;;;;;;;6.07;4.30;;;10.90;99.90;;;;;;5053003;28;20576;-64
2023/10/27 04:21:04;;;;;;;4.37;3.27;;;10.90;99.90;;;;;;5053007;28;20452;-64
2023/10/27 04:23:31;;;;;;;8.87;4.50;;;10.90;99.90;;;;;;5053036;28;20451;-63
2023/10/27 04:25:58;;;;;;;5.77;4.20;;;10.90;99.90;;;;;;5052643;28;20544;-63
2023/10/27 04:28:25;;;;;;;4.27;3.80;;;10.90;99.90;;;;;;5052694;28;20469;-64
2023/10/27 04:30:53;;;;;;;5.77;3.77;;;10.90;99.90;;;;;;5052721;28;20563;-64
2023/10/27 04:33:22;;;;;;;8.40;3.67;;;10.90;99.90;;;;;;5052742;28;20456;-64
2023/10/27 04:35:49;;;;;;;5.33;4.30;;;10.90;99.90;;;;;;5052349;28;20457;-64
2023/10/27 04:38:16;;;;;;;4.40;3.30;;;10.90;99.90;;;;;;5052443;28;20481;-64
2023/10/27 04:40:43;;;;;;;4.93;3.10;;;10.90;99.90;;;;;;5052560;28;20501;-64
2023/10/27 04:43:10;;;;;;;9.10;3.77;;;10.90;99.90;;;;;;5052380;28;20998;-64
2023/10/27 04:45:37;;;;;;;10.55;4.20;;;10.90;99.90;;;;;;5052389;28;20451;-64
2023/10/27 04:48:05;;;;;;;4.53;3.60;;;10.90;99.90;;;;;;5052310;28;20202;-64
2023/10/27 04:50:35;;;;;;;3.57;3.20;;;10.90;99.90;;;;;;5052354;28;20536;-64
2023/10/27 04:53:02;;;;;;;3.43;3.13;;;10.90;99.90;;;;;;5052328;28;20495;-64
2023/10/27 04:55:28;;;;;;;5.10;3.87;;;10.90;99.90;;;;;;5051994;28;20528;-64
2023/10/27 04:57:55;;;;;;;9.37;4.53;;;10.90;99.90;;;;;;5051944;28;20453;-64
2023/10/27 05:00:22;;;;;;;6.73;3.60;;;10.90;99.90;;;;;;5052334;28;20476;-64
2023/10/27 05:02:50;;;;;;;4.17;3.10;;;10.90;99.90;;;;;;5052103;28;20447;-64
2023/10/27 05:05:18;;;;;;;9.90;4.60;;;10.90;99.90;;;;;;5051893;28;20889;-64
2023/10/27 05:07:46;;;;;;;5.43;3.33;;;10.90;99.90;;;;;;5052104;28;20484;-64
2023/10/27 05:10:13;;;;;;;5.50;3.33;;;10.90;99.90;;;;;;5051798;28;20465;-64
2023/10/27 05:12:40;;;;;;;4.93;4.40;;;10.90;99.90;;;;;;5052185;28;20437;-64
2023/10/27 05:15:08;;;;;;;10.13;3.30;;;10.90;99.90;;;;;;5051613;28;20551;-64
2023/10/27 05:17:35;;;;;;;4.27;2.97;;;10.90;99.90;;;;;;5052051;28;20453;-64
2023/10/27 05:20:03;;;;;;;4.83;3.43;;;10.90;99.90;;;;;;5051682;28;21002;-64
2023/10/27 05:22:31;;;;;;;4.43;3.87;;;10.90;99.90;;;;;;5051887;28;20441;-63
2023/10/27 05:25:01;;;;;;;7.03;4.10;;;10.90;99.90;;;;;;5051460;28;20815;-64
2023/10/27 05:27:27;;;;;;;5.10;4.20;;;10.90;99.90;;;;;;5051965;28;20798;-64
2023/10/27 05:29:55;;;;;;;8.90;4.83;;;10.90;99.90;;;;;;5050251;28;20472;-64
2023/10/27 05:32:22;;;;;;;10.90;5.90;;;10.90;99.90;;;;;;5051566;28;20931;-64
2023/10/27 05:34:49;;;;;;;7.93;5.43;;;10.90;99.90;;;;;;5043137;28;20448;-64
2023/10/27 05:37:15;;;;;;;8.27;4.27;;;10.90;99.90;;;;;;5031681;28;20456;-64
2023/10/27 05:39:42;;;;;;;7.90;4.43;;;11.00;99.90;;;;;;5031409;28;20481;-64
2023/10/27 05:42:10;;;;;;;5.83;4.50;;;11.00;99.90;;;;;;5031469;28;20441;-64
2023/10/27 05:44:37;;;;;;;8.83;4.43;;;11.00;99.90;;;;;;5031589;28;20456;-64
2023/10/27 05:47:04;;;;;;;6.17;5.07;;;11.00;99.90;;;;;;5031632;28;20446;-64
2023/10/27 05:49:31;;;;;;;4.90;4.50;;;11.00;99.90;;;;;;5031591;28;20489;-64
2023/10/27 05:52:02;;;;;;;14.63;5.27;;;11.00;99.90;;;;;;5031422;28;20549;-64
2023/10/27 05:54:29;;;;;;;5.70;4.00;;;11.00;99.90;;;;;;5031646;28;20445;-64
2023/10/27 05:56:56;;;;;;;7.40;4.07;;;11.00;99.90;;;;;;5031201;28;20537;-64
2023/10/27 05:59:24;;;;;;;4.87;4.17;;;11.00;99.90;;;;;;5031228;28;20521;-64
2023/10/27 06:01:53;;;;;;;4.97;4.47;;;11.00;99.90;;;;;;5031464;28;20532;-64
2023/10/27 06:04:21;;;;;;;5.70;3.87;;;11.00;99.90;;;;;;5030945;28;20549;-64
2023/10/27 06:06:47;;;;;;;4.20;3.80;;;11.00;99.90;;;;;;5031074;28;20496;-64
2023/10/27 06:09:14;;;;;;;5.60;4.73;;;11.00;99.90;;;;;;5031327;28;20472;-64
2023/10/27 06:11:41;;;;;;;8.83;4.97;;;11.00;99.90;;;;;;5031111;28;20446;-64
2023/10/27 06:14:08;;;;;;;8.03;5.00;;;11.00;99.90;;;;;;5031363;28;20481;-64
2023/10/27 06:16:37;;;;;;;7.13;4.43;;;11.00;99.90;;;;;;5030920;28;20453;-64
2023/10/27 06:19:04;;;;;;;7.90;5.03;;;11.10;99.90;;;;;;5030941;28;21102;-64
2023/10/27 06:21:31;;;;;;;6.63;4.40;;;11.00;99.90;;;;;;5049406;28;20471;-64
2023/10/27 06:23:58;;;;;;;6.63;4.33;;;11.10;99.90;;;;;;5051250;28;20536;-63
2023/10/27 06:26:25;;;;;;;10.10;4.43;;;11.10;99.90;;;;;;5050823;28;20488;-64
2023/10/27 06:28:53;;;;;;;6.63;5.30;;;11.10;99.90;;;;;;5050700;28;20551;-64
2023/10/27 06:31:21;;;;;;;10.67;7.00;;;11.10;99.90;;;;;;5071600;22;20497;-63
2023/10/27 06:33:49;;;;;;;12.50;6.00;;;11.10;99.90;;;;;;5051015;28;20516;-64
2023/10/27 06:36:16;;;;;;;6.33;4.67;;;11.10;99.90;;;;;;5050967;28;20455;-63
2023/10/27 06:38:43;;;;;;;13.13;5.63;;;11.10;99.90;;;;;;5050994;28;20811;-63
2023/10/27 06:41:09;;;;;;;7.40;5.17;;;11.10;99.90;;;;;;5050943;28;20471;-64
2023/10/27 06:43:36;;;;;;;5.67;4.57;;;11.10;99.90;;;;;;5051006;28;20456;-62
2023/10/27 06:46:03;;;;;;;7.90;5.30;;;11.10;99.90;;;;;;5050588;28;20440;-63
2023/10/27 06:48:31;;;;;;;8.70;6.20;;;11.10;99.90;;;;;;5050798;28;20528;-63
2023/10/27 06:50:59;;;;;;;7.03;6.17;;;11.20;99.90;;;;;;5050981;28;20468;-64
2023/10/27 06:53:26;;;;;;;11.63;5.30;;;11.10;99.90;;;;;;5050753;28;20449;-64
2023/10/27 06:55:52;;;;;;;7.13;5.77;;;11.10;99.90;;;;;;5050557;28;20536;-63
2023/10/27 06:58:19;;;;;;;8.50;5.50;;;11.10;99.90;;;;;;5050603;28;20947;-63
2023/10/27 07:00:46;;;;;;;11.00;6.05;;;11.20;99.90;;;;;;5050316;28;20492;-63
2023/10/27 07:03:13;;;;;;;7.10;6.50;;;11.20;99.90;;;;;;5050444;28;20221;-63
2023/10/27 07:05:40;;;;;;;8.60;7.70;;;11.20;99.90;;;;;;5050470;28;20531;-64
2023/10/27 07:08:09;;;;;;;7.53;6.33;;;11.20;99.90;;;;;;5050690;28;20532;-64
2023/10/27 07:10:36;;;;;;;10.60;6.43;;;11.30;99.90;;;;;;5050353;28;20909;-63
2023/10/27 07:13:03;;;;;;;13.13;8.27;;;11.30;99.90;;;;;;5050408;28;21017;-63
2023/10/27 07:15:30;;;;;;;9.77;7.47;;;11.30;99.90;;;;;;5034458;28;20456;-63
2023/10/27 07:17:57;;;;;;;10.20;8.53;;;11.30;99.90;;;;;;5045960;28;20445;-64
2023/10/27 07:20:23;;;;;;;9.47;7.63;;;11.30;99.90;;;;;;5053469;28;20496;-63
2023/10/27 07:22:50;;;;;;;10.90;7.53;;;11.30;99.90;;;;;;5053581;28;20801;-63
2023/10/27 07:25:19;;;;;;;9.17;7.80;;;11.30;99.90;;;;;;5053471;28;20448;-62
2023/10/27 07:27:46;;;;;;;10.93;7.60;;;11.40;99.90;;;;;;5053270;28;20449;-63
2023/10/27 07:30:14;;;;;;;8.10;6.43;;;11.40;99.90;;;;;;5053222;28;20606;-62
2023/10/27 07:32:40;;;;;;;8.40;5.97;;;11.40;99.90;;;;;;5053460;28;20484;-62
2023/10/27 07:35:08;;;;;;;9.20;6.30;;;11.40;99.90;;;;;;5053463;28;20879;-61
2023/10/27 07:37:35;;;;;;;7.77;5.67;;;11.40;99.90;;;;;;5053672;28;20456;-62
2023/10/27 07:40:03;;;;;;;6.50;5.87;;;11.40;99.90;;;;;;5053380;28;20950;-63
2023/10/27 07:42:32;;;;;;;7.07;6.37;;;11.40;99.90;;;;;;5053606;28;20535;-62
2023/10/27 07:44:59;;;;;;;7.97;6.23;;;11.40;99.90;;;;;;5053255;28;20456;-63
2023/10/27 07:47:26;;;;;;;13.77;7.50;;;11.50;99.90;;;;;;5053649;28;20449;-62
2023/10/27 07:49:53;;;;;;;10.80;6.07;;;11.50;99.90;;;;;;5053528;28;20465;-62
2023/10/27 07:52:20;;;;;;;7.90;6.37;;;11.50;99.90;;;;;;5053489;28;20460;-62
2023/10/27 07:54:47;;;;;;;7.90;6.20;;;11.50;99.90;;;;;;5050580;28;20451;-62
2023/10/27 07:57:14;;;;;;;5.80;5.10;;;11.60;99.90;;;;;;5033571;28;20460;-63
2023/10/27 07:59:42;;;;;;;9.40;5.80;;;11.50;99.90;;;;;;5046036;28;20933;-62
2023/10/27 08:02:09;;;;;;;7.03;5.10;;;11.50;99.90;;;;;;5047690;28;20449;-63
2023/10/27 08:04:37;;;;;;;6.57;5.90;;;11.60;99.90;;;;;;5048794;28;20539;-61
2023/10/27 08:07:04;;;;;;;7.63;5.47;;;11.60;99.90;;;;;;5051398;28;20453;-63
2023/10/27 08:09:31;;;;;;;9.90;6.33;;;11.60;99.90;;;;;;5041957;28;21034;-62
2023/10/27 08:11:58;;;;;;;7.60;5.10;;;11.60;99.90;;;;;;5047224;28;20468;-61
2023/10/27 08:14:25;;;;;;;9.50;5.00;;;11.60;99.90;;;;;;5044581;28;20449;-62
2023/10/27 08:16:54;;;;;;;11.37;6.33;;;11.60;99.90;;;;;;5052770;28;20536;-62
2023/10/27 08:19:20;;;;;;;8.10;4.87;;;11.60;99.90;;;;;;5046056;28;20476;-61
2023/10/27 08:21:48;;;;;;;7.10;5.30;;;11.60;99.90;;;;;;5049238;28;20447;-62
2023/10/27 08:24:16;;;;;;;4.30;3.80;;;11.60;99.90;;;;;;5051719;28;20456;-62
2023/10/27 08:26:43;;;;;;;4.67;4.20;;;11.70;99.90;;;;;;5052464;28;20449;-62
2023/10/27 08:29:10;;;;;;;6.30;4.40;;;11.60;99.90;;;;;;5039587;28;20453;-62
2023/10/27 08:31:37;;;;;;;6.00;3.60;;;11.70;99.90;;;;;;5046524;28;20481;-61
2023/10/27 08:34:06;;;;;;;3.47;3.17;;;11.70;99.90;;;;;;5050850;28;20443;-62
2023/10/27 08:36:33;;;;;;;4.20;2.97;;;11.70;99.90;;;;;;5048041;28;20445;-62
2023/10/27 08:39:00;;;;;;;6.63;4.40;;;11.70;99.90;;;;;;5045839;28;20947;-63
2023/10/27 08:41:28;;;;;;;7.60;3.57;;;11.70;99.90;;;;;;5049833;28;20485;-61
2023/10/27 08:43:56;;;;;;;7.23;3.37;;;11.60;99.90;;;;;;5044089;28;20987;-62
2023/10/27 08:46:24;;;;;;;3.10;2.80;;;11.60;99.90;;;;;;5038981;28;20533;-61
2023/10/27 08:48:51;;;;;;;3.90;3.20;;;11.60;99.90;;;;;;5047562;28;20456;-63
2023/10/27 08:51:20;;;;;;;3.73;3.43;;;11.60;99.90;;;;;;5041727;28;20464;-63
2023/10/27 08:53:48;;;;;;;4.37;3.80;;;11.60;99.90;;;;;;5042911;28;20445;-63
2023/10/27 08:56:15;;;;;;;5.37;3.47;;;11.60;99.90;;;;;;5050375;28;20539;-61
2023/10/27 08:58:48;;;;;;;8.10;3.77;;;11.60;99.90;;;;;;5047309;28;20477;-63
2023/10/27 09:01:15;;;;;;;3.63;3.33;;;11.60;99.90;;;;;;5041937;28;20511;-62
2023/10/27 09:03:42;;;;;;;3.53;3.23;;;11.60;99.90;;;;;;5042498;28;20437;-63
2023/10/27 09:06:09;;;;;;;4.33;3.83;;;11.60;99.90;;;;;;5049965;28;20492;-61
2023/10/27 09:08:37;;;;;;;4.60;3.40;;;11.60;99.90;;;;;;5045152;28;20438;-63
2023/10/27 09:11:04;;;;;;;4.07;3.77;;;11.60;99.90;;;;;;5040882;28;21001;-62
2023/10/27 09:13:38;;;;;;;5.37;4.80;;;11.60;99.90;;;;;;5050726;28;20453;-64
2023/10/27 09:16:05;;;;;;;4.23;3.50;;;11.60;99.90;;;;;;5049380;28;20453;-62
2023/10/27 09:18:36;;;;;;;5.60;3.00;;;11.60;99.90;;;;;;5049505;28;20476;-63
2023/10/27 09:21:03;;;;;;;3.20;2.40;;;11.60;99.90;;;;;;5039935;28;20493;-62
2023/10/27 09:23:46;;;;;;;5.40;4.93;;;11.60;99.90;;;;;;5045608;28;20438;-63
2023/10/27 09:26:12;;;;;;;2.37;2.27;;;11.60;99.90;;;;;;5041759;28;20872;-63
2023/10/27 09:28:39;;;;;;;1.80;1.70;;;11.60;99.90;;;;;;5050578;28;20444;-62
2023/10/27 09:31:06;;;;;;;3.30;2.10;;;11.60;99.90;;;;;;5042108;28;20545;-62
2023/10/27 09:33:33;;;;;;;1.90;1.63;;;11.60;99.90;;;;;;5051138;28;21042;-63
2023/10/27 09:36:02;;;;;;;2.93;2.73;;;11.60;99.90;;;;;;5049263;28;20449;-63
2023/10/27 09:38:29;;;;;;;2.90;2.70;;;11.60;99.90;;;;;;5031603;28;20450;-62
2023/10/27 09:41:00;;;;;;;2.70;2.50;;;11.60;99.90;;;;;;5045697;28;20511;-63
2023/10/27 09:43:30;;;;;;;6.93;3.07;;;11.60;99.90;;;;;;5034672;28;20888;-64
2023/10/27 09:46:00;;;;;;;3.60;3.30;;;11.60;99.90;;;;;;5049752;28;20528;-62
2023/10/27 09:48:28;;;;;;;2.80;2.60;;;11.60;99.90;;;;;;5030204;28;20442;-62
2023/10/27 09:51:10;;;;;;;2.70;2.07;;;11.60;99.90;;;;;;5046464;28;20544;-62
2023/10/27 09:53:38;;;;;;;2.83;2.70;;;11.70;99.90;;;;;;5036232;28;20447;-61
2023/10/27 09:56:07;;;;;;;2.47;2.27;;;11.70;99.90;;;;;;5040084;28;20444;-63
2023/10/27 09:58:36;;;;;;;2.17;1.80;;;11.80;99.90;;;;;;5044022;28;20440;-62
2023/10/27 10:01:04;;;;;;;1.73;1.63;;;11.90;99.90;;;;;;5032126;28;20585;-63
2023/10/27 10:03:32;;;;;;;2.53;2.33;;;11.90;99.90;;;;;;5035373;28;20450;-62
2023/10/27 10:06:10;;;;;;;3.57;3.37;;;11.90;99.90;;;;;;5040872;28;20450;-63
2023/10/27 10:08:36;;;;;;;1.80;1.60;;;12.00;99.90;;;;;;5050039;28;20456;-63
2023/10/27 10:11:14;;;;;;;1.00;1.00;;;12.00;99.90;;;;;;5032262;28;20457;-62
2023/10/27 10:13:41;;;;;;;1.40;1.03;;;12.00;99.90;;;;;;5036714;28;20441;-63
2023/10/27 10:16:08;;;;;;;0.83;0.80;;;12.00;99.90;;;;;;5039722;28;20528;-63
2023/10/27 10:18:55;;;;;;;2.47;2.33;;;12.00;99.90;;;;;;5043996;28;20495;-63
2023/10/27 10:21:33;;;;;;;1.07;1.07;;;11.90;99.90;;;;;;5037561;28;20497;-63
2023/10/27 10:24:08;;;;;;;0.77;0.77;;;11.90;99.90;;;;;;5044570;28;20506;-61
2023/10/27 10:27:13;;;;;;;2.77;1.00;;;11.80;99.90;;;;;;5044035;28;20785;-63
2023/10/27 10:29:40;;;;;;;1.67;1.60;;;11.80;99.90;;;;;;5036518;28;20445;-63
2023/10/27 10:32:30;;;;;;;1.20;1.10;;;11.80;99.90;;;;;;5039871;28;20456;-63
2023/10/27 10:35:27;;;;;;;2.33;0.90;;;11.80;99.90;;;;;;5046254;28;20540;-62
2023/10/27 10:37:54;;;;;;;0.93;0.93;;;11.80;99.90;;;;;;5038440;28;20445;-61
2023/10/27 10:40:26;;;;;;;1.17;0.93;;;11.80;99.90;;;;;;5037664;28;20496;-62
2023/10/27 10:43:27;;;;;;;0.67;0.67;;;11.80;99.90;;;;;;5046585;28;21063;-63
2023/10/27 10:45:55;;;;;;;1.20;1.10;;;11.80;99.90;;;;;;5037794;28;20445;-62
2023/10/27 10:48:25;;;;;;;0.83;0.83;;;11.90;99.90;;;;;;5037440;28;20450;-62
2023/10/27 10:50:53;;;;;;;3.60;0.93;;;11.90;99.90;;;;;;5046308;28;20986;-63
2023/10/27 10:53:22;;;;;;;1.00;0.90;;;12.00;99.90;;;;;;5041645;28;20932;-62
2023/10/27 10:55:50;;;;;;;1.07;0.97;;;12.00;99.90;;;;;;5037595;28;20449;-63
2023/10/27 10:58:25;;;;;;;0.90;0.90;;;12.00;99.90;;;;;;5040095;28;20449;-63
2023/10/27 11:00:52;;;;;;;1.00;1.00;;;12.10;99.90;;;;;;5032202;28;20487;-63
2023/10/27 11:03:22;;;;;;;1.73;1.53;;;12.10;99.90;;;;;;5035905;28;20523;-62
2023/10/27 11:05:50;;;;;;;1.03;1.00;;;12.10;99.90;;;;;;5044573;28;20532;-63
2023/10/27 11:08:25;;;;;;;1.30;0.80;;;12.20;99.90;;;;;;5044560;28;20536;-63
2023/10/27 11:11:02;;;;;;;0.70;0.70;;;12.20;99.90;;;;;;5036528;28;20493;-63
2023/10/27 11:13:31;;;;;;;1.17;0.60;;;12.30;99.90;;;;;;5038357;28;20539;-61
2023/10/27 11:15:59;;;;;;;1.73;1.20;;;12.30;99.90;;;;;;5043661;28;20488;-62
2023/10/27 11:18:28;;;;;;;1.20;1.10;;;12.50;99.90;;;;;;5045581;28;20472;-63
2023/10/27 11:20:55;;;;;;;0.80;0.80;;;12.70;99.90;;;;;;5036042;28;20495;-63
2023/10/27 11:23:26;;;;;;;0.80;0.80;;;12.70;99.90;;;;;;5048916;28;20446;-63
2023/10/27 11:26:02;;;;;;;0.60;0.60;;;12.80;99.90;;;;;;5040638;28;20441;-64
2023/10/27 11:28:30;;;;;;;1.00;1.00;;;12.80;99.90;;;;;;5039912;28;20449;-64
2023/10/27 11:31:00;;;;;;;1.20;0.67;;;12.80;99.90;;;;;;5048736;28;20559;-63
2023/10/27 11:33:27;;;;;;;0.77;0.67;;;12.80;99.90;;;;;;5048613;28;20445;-63
2023/10/27 11:35:55;;;;;;;0.57;0.57;;;12.70;99.90;;;;;;5035968;28;20533;-64
2023/10/27 11:38:23;;;;;;;0.87;0.70;;;12.70;99.90;;;;;;5045066;28;20811;-63
2023/10/27 11:40:51;;;;;;;0.80;0.80;;;12.60;99.90;;;;;;5036144;28;21021;-62
2023/10/27 11:43:18;;;;;;;0.83;0.83;;;12.60;99.90;;;;;;5049106;28;20442;-63
2023/10/27 11:45:46;;;;;;;0.83;0.70;;;12.60;99.90;;;;;;5039443;28;20527;-63
2023/10/27 11:48:14;;;;;;;1.00;0.90;;;12.60;99.90;;;;;;5041075;28;20442;-64
2023/10/27 11:50:40;;;;;;;0.70;0.70;;;12.60;99.90;;;;;;5047055;28;20468;-63
2023/10/27 11:53:07;;;;;;;1.37;1.27;;;12.60;99.90;;;;;;5035986;28;20549;-64
2023/10/27 11:55:34;;;;;;;1.73;0.93;;;12.60;99.90;;;;;;5046503;28;20448;-63
2023/10/27 11:58:01;;;;;;;1.47;1.37;;;12.60;99.90;;;;;;5041784;28;20445;-64
2023/10/27 12:00:28;;;;;;;1.70;1.60;;;12.70;99.90;;;;;;5039049;28;21157;-64
2023/10/27 12:02:58;;;;;;;1.47;1.47;;;12.80;99.90;;;;;;5047102;28;20532;-64
2023/10/27 12:05:25;;;;;;;1.40;1.30;;;12.90;99.90;;;;;;5036480;28;20534;-64
2023/10/27 12:07:52;;;;;;;1.20;1.20;;;12.80;99.90;;;;;;5047062;28;20546;-62
2023/10/27 12:10:19;;;;;;;2.90;2.70;;;12.80;99.90;;;;;;5043115;28;20806;-63
2023/10/27 12:12:47;;;;;;;2.20;1.37;;;12.90;99.90;;;;;;5048698;28;20506;-64
2023/10/27 12:15:14;;;;;;;1.40;1.30;;;12.90;99.90;;;;;;5037342;28;20832;-62
2023/10/27 12:17:42;;;;;;;5.97;3.40;;;13.00;99.90;;;;;;5042144;28;21041;-64
2023/10/27 12:20:12;;;;;;;4.33;2.17;;;13.00;99.90;;;;;;5042484;28;20496;-63
2023/10/27 12:22:44;;;;;;;5.30;3.30;;;13.10;99.90;;;;;;5037358;28;20513;-63
2023/10/27 12:25:11;;;;;;;3.17;2.63;;;13.10;99.90;;;;;;5048177;28;20441;-63
2023/10/27 12:27:38;;;;;;;1.93;1.80;;;13.10;99.90;;;;;;5037886;28;20459;-63
2023/10/27 12:30:06;;;;;;;2.10;1.67;;;13.10;99.90;;;;;;5041435;28;20561;-62
2023/10/27 12:32:33;;;;;;;1.90;1.80;;;13.00;99.90;;;;;;5045457;28;20483;-63
2023/10/27 12:35:00;;;;;;;1.97;1.73;;;13.00;99.90;;;;;;5034993;28;20442;-64
2023/10/27 12:37:30;;;;;;;2.53;2.30;;;13.10;99.90;;;;;;5046929;28;20849;-63
2023/10/27 12:39:57;;;;;;;2.40;2.20;;;13.20;99.90;;;;;;5040622;28;21066;-63
2023/10/27 12:42:24;;;;;;;2.43;1.60;;;13.40;99.90;;;;;;5038604;28;21011;-64
2023/10/27 12:44:51;;;;;;;2.90;1.70;;;13.60;99.90;;;;;;5047492;28;20498;-64
2023/10/27 12:47:18;;;;;;;2.00;1.83;;;13.80;99.90;;;;;;5034757;28;20445;-64
2023/10/27 12:49:46;;;;;;;2.03;1.90;;;13.90;99.90;;;;;;5043966;28;20552;-62